Stapleton, Alabama
Current Conditions -  °F | °C
As of 9:53 PM on Friday 31 Oct 2014 (Local Time) from KBFM Reporting Station
Clear Clear  
Wind Chill: 61°   Ceiling: Unl
Heat Index: 61°   Visibility: 10mi
Dew Point: 46°   Wind: 23mph
Humidity: 58%   Direction: 320°NW
Pressure: 30.1"   Gusts: 29mph
Location:  30.74°N, 87.79°W
Report Text: KBFM 010253Z AUTO 32020G25KT 10SM CLR 16/08 A3010 RMK AO2 PK WND 33031/0236 SLP194 T01610078 53028
Loading
Personal Weather Stations






























Interactive Weather Map
Tropical Storm Tracking
New forecast layout! Learn more

10-Day Weather Forecast

Advertisements
Track Severe Weather on mobile